This is the latest recevied weather packets stored in our database for station/object SP6RGZ-1. If no packets are shown the sender has not sent any weather packets the latest 10 day(s).
| Time | Temp. | Humidity | Pressure | Rain* | Wind** | Luminosity | Snow |
|---|---|---|---|---|---|---|---|
| 1787742002 | 25° C | 44% | 1002.2 hPa | - | - | - | - |
| 1787741102 | 25° C | 45% | 1002.2 hPa | - | - | - | - |
| 1787740202 | 25° C | 45% | 1002.2 hPa | - | - | - | - |
| 1787739302 | 24.44° C | 47% | 1002.2 hPa | - | - | - | - |
| 1787738402 | 24.44° C | 47% | 1002.2 hPa | - | - | - | - |
| 1787737502 | 25° C | 48% | 1002.3 hPa | - | - | - | - |
| 1787736602 | 24.44° C | 47% | 1002.3 hPa | - | - | - | - |
| 1787735702 | 24.44° C | 49% | 1002.4 hPa | - | - | - | - |
| 1787734802 | 23.89° C | 52% | 1002.4 hPa | - | - | - | - |
| 1787733902 | 23.33° C | 55% | 1002.3 hPa | - | - | - | - |
| 1787733002 | 23.33° C | 56% | 1002.3 hPa | - | - | - | - |
| 1787732102 | 22.78° C | 58% | 1002.2 hPa | - | - | - | - |
| 1787731202 | 21.11° C | 62% | 1002.2 hPa | - | - | - | - |
| 1787730302 | 20.56° C | 64% | 1002.1 hPa | - | - | - | - |
| 1787729403 | 20.56° C | 64% | 1002.1 hPa | - | - | - | - |
| 1787728502 | 20.56° C | 66% | 1001.9 hPa | - | - | - | - |
| 1787727602 | 18.89° C | 71% | 1001.8 hPa | - | - | - | - |
| 1787726702 | 18.33° C | 75% | 1001.8 hPa | - | - | - | - |
| 1787725802 | 17.22° C | 80% | 1001.8 hPa | - | - | - | - |
| 1787724902 | 16.67° C | 84% | 1001.8 hPa | - | - | - | - |
| 1787724002 | 16.11° C | 85% | 1001.8 hPa | - | - | - | - |
| 1787723102 | 15.56° C | 88% | 1001.9 hPa | - | - | - | - |
| 1787722202 | 15° C | 90% | 1001.9 hPa | - | - | - | - |
| 1787721302 | 14.44° C | 92% | 1001.7 hPa | - | - | - | - |
| 1787720402 | 14.44° C | 93% | 1001.6 hPa | - | - | - | - |
* Rain since midnight (hover to see other rain measurements)
** Current wind speed in m/s (hover to see current wind gust speed)